EDSB

Karlsruhe Baden-Baden Airport

Baden-Baden, Germany
METAR EDSB 212220Z AUTO 36002KT 9999 // NCD 15/12 Q1016
Observed Flight Rules
Apr-21 @ 22:20 UTC (41 minutes ago) Visual Flight Rules
Wind Visibility Clouds
360° at 2 knots 10,000+ meters
  • Clear skies
Temperatures Readings
Current 15°C / 59°F
Dewpoint 12°C / 54°F
Humidity 82%
Altimeter 30" Hg
Pressure 1016 hPa
Elevation 124
METAR EDSB 212220Z AUTO 36002KT 9999 // NCD 15/12 Q1016
Observed Flight Rules
Apr-21 @ 22:20 UTC
(41 minutes ago)
VFR
Wind Visibility
360° at 2 knots 10,000+ meters
Clouds
  • Clear skies
Temperature Dewpoint
15°C / 59°F 12°C / 54°F
Humidity Altimeter Pressure
82% 30" Hg 1016 hPa